Time;durP1;ratioP1;P1;durP2;ratioP2;P2;SDS_P1;SDS_P2;PMS_P1;PMS_P2;Temp;Humidity;BMP_temperature;BMP_pressure;BME280_temperature;BME280_humidity;BME280_pressure;Samples;Min_cycle;Max_cycle;Signal;HPM_P1;HPM_P2
2021/08/27 00:01:49;;;;;;;4.15;1.30;;;16.30;92.70;;;;;;5071460;28;20028;-85
2021/08/27 00:04:15;;;;;;;6.30;1.48;;;16.30;92.70;;;;;;5075973;28;20104;-84
2021/08/27 00:06:41;;;;;;;4.55;1.15;;;16.30;92.70;;;;;;5071962;28;20023;-84
2021/08/27 00:09:06;;;;;;;5.45;1.10;;;16.30;92.70;;;;;;5074400;28;20094;-84
2021/08/27 00:11:32;;;;;;;3.10;1.20;;;16.30;92.70;;;;;;5044201;28;20032;-84
2021/08/27 00:13:58;;;;;;;6.00;1.20;;;16.30;92.80;;;;;;5078329;28;20032;-84
2021/08/27 00:16:23;;;;;;;4.03;0.70;;;16.20;92.70;;;;;;5074943;28;20063;-84
2021/08/27 00:18:49;;;;;;;3.40;1.90;;;16.20;92.80;;;;;;5095933;28;20081;-85
2021/08/27 00:21:15;;;;;;;3.10;1.05;;;16.20;92.80;;;;;;5077911;28;20372;-84
2021/08/27 00:23:41;;;;;;;4.32;1.35;;;16.20;92.80;;;;;;5063314;28;20369;-83
2021/08/27 00:26:06;;;;;;;5.47;1.17;;;16.20;92.80;;;;;;5094775;28;20131;-83
2021/08/27 00:28:32;;;;;;;6.97;1.42;;;16.20;92.90;;;;;;5075370;28;20115;-84
2021/08/27 00:30:58;;;;;;;4.28;0.93;;;16.20;92.90;;;;;;5075644;28;20028;-85
2021/08/27 00:33:27;;;;;;;2.80;1.27;;;16.20;92.90;;;;;;5062517;28;20089;-85
2021/08/27 00:35:53;;;;;;;5.07;1.00;;;16.20;92.90;;;;;;5063941;28;20170;-85
2021/08/27 00:38:19;;;;;;;5.07;1.35;;;16.20;92.90;;;;;;5050427;28;20075;-84
2021/08/27 00:40:48;;;;;;;4.15;1.38;;;16.20;93.00;;;;;;5060993;28;20051;-84
2021/08/27 00:43:14;;;;;;;7.53;1.98;;;16.10;93.00;;;;;;5074128;28;20024;-83
2021/08/27 00:45:43;;;;;;;5.25;1.67;;;16.10;92.90;;;;;;5053868;28;20025;-85
2021/08/27 00:48:10;;;;;;;8.32;1.77;;;16.10;92.90;;;;;;5064008;28;20020;-84
2021/08/27 00:50:37;;;;;;;2.60;0.95;;;16.10;93.00;;;;;;5055596;28;20052;-83
2021/08/27 00:53:03;;;;;;;4.90;1.35;;;16.10;93.00;;;;;;5075795;28;20028;-84
2021/08/27 00:55:29;;;;;;;5.45;1.35;;;16.00;93.00;;;;;;5075212;28;20036;-84
2021/08/27 00:57:56;;;;;;;8.07;1.42;;;16.00;93.00;;;;;;5070277;28;20091;-84
2021/08/27 01:00:23;;;;;;;3.10;0.98;;;16.00;93.10;;;;;;5057054;28;20029;-83
2021/08/27 01:02:49;;;;;;;3.35;1.00;;;16.00;93.00;;;;;;5074085;28;20037;-84
2021/08/27 01:05:15;;;;;;;3.78;1.00;;;16.00;93.30;;;;;;5074053;28;20530;-84
2021/08/27 01:07:56;;;;;;;4.90;1.00;;;16.00;93.10;;;;;;5077030;28;20032;-84
2021/08/27 01:10:28;;;;;;;;;;;15.90;93.10;;;;;;5063127;28;20556;-84
2021/08/27 01:12:57;;;;;;;4.82;1.13;;;15.90;93.20;;;;;;5082914;28;19951;-84
2021/08/27 01:15:31;;;;;;;5.03;1.25;;;15.90;93.20;;;;;;5056781;28;20025;-85
2021/08/27 01:18:10;;;;;;;4.93;1.33;;;15.90;93.30;;;;;;5051215;28;20526;-84
2021/08/27 01:21:09;;;;;;;5.28;1.00;;;15.80;93.30;;;;;;5067975;28;20460;-83
2021/08/27 01:23:43;;;;;;;4.10;1.00;;;15.80;93.30;;;;;;5073334;28;20120;-84
2021/08/27 01:26:10;;;;;;;4.88;1.02;;;15.80;93.30;;;;;;5057757;28;20457;-84
2021/08/27 01:28:41;;;;;;;5.00;1.15;;;15.80;93.30;;;;;;5070832;28;20396;-83
2021/08/27 01:31:25;;;;;;;3.47;1.05;;;15.80;93.40;;;;;;5053786;28;20027;-83
2021/08/27 01:33:57;;;;;;;4.05;0.80;;;15.70;93.40;;;;;;5053571;28;20025;-84
2021/08/27 01:36:24;;;;;;;3.85;1.00;;;15.70;93.40;;;;;;5055209;28;20029;-84
2021/08/27 01:38:51;;;;;;;4.32;0.80;;;15.70;93.40;;;;;;5085277;28;20069;-83
2021/08/27 01:41:17;;;;;;;3.53;1.25;;;15.70;93.40;;;;;;5074769;28;20078;-84
2021/08/27 01:43:45;;;;;;;4.05;1.13;;;15.60;93.40;;;;;;5039870;28;20033;-85
2021/08/27 01:46:12;;;;;;;4.18;1.10;;;15.60;93.40;;;;;;5056207;28;20036;-84
2021/08/27 01:48:38;;;;;;;4.03;1.08;;;15.60;93.50;;;;;;5056692;28;20040;-84
2021/08/27 01:51:09;;;;;;;3.38;1.08;;;15.60;93.60;;;;;;5053409;28;20029;-84
2021/08/27 01:53:37;;;;;;;4.90;1.05;;;15.60;93.60;;;;;;5054474;28;20040;-83
2021/08/27 01:56:04;;;;;;;5.40;1.30;;;15.50;93.60;;;;;;5055839;28;20029;-84
2021/08/27 01:58:32;;;;;;;5.43;1.33;;;15.60;93.60;;;;;;5056792;28;20112;-84
2021/08/27 02:00:58;;;;;;;2.75;1.20;;;15.50;93.60;;;;;;5057277;28;20028;-84
2021/08/27 02:03:27;;;;;;;4.20;1.25;;;15.50;93.60;;;;;;5040864;28;20055;-85
2021/08/27 02:05:53;;;;;;;5.00;1.67;;;15.50;93.70;;;;;;5045632;28;20087;-83
2021/08/27 02:08:21;;;;;;;3.40;1.02;;;15.50;93.70;;;;;;5054029;28;20017;-84
2021/08/27 02:10:47;;;;;;;4.85;1.10;;;15.50;93.70;;;;;;5064797;28;20378;-84
2021/08/27 02:13:14;;;;;;;4.50;1.33;;;15.50;93.80;;;;;;5077327;28;20024;-84
2021/08/27 02:15:41;;;;;;;7.70;1.30;;;15.50;93.90;;;;;;5065571;28;20091;-84
2021/08/27 02:18:06;;;;;;;5.07;1.10;;;15.40;93.90;;;;;;5064055;28;20036;-84
2021/08/27 02:20:34;;;;;;;4.50;1.25;;;15.40;93.90;;;;;;5093632;28;20028;-84
2021/08/27 02:23:02;;;;;;;2.70;0.90;;;15.40;94.00;;;;;;5089427;28;20052;-83
2021/08/27 02:25:31;;;;;;;4.55;1.10;;;15.40;94.10;;;;;;5080386;28;20027;-84
2021/08/27 02:27:58;;;;;;;3.83;0.93;;;15.40;94.10;;;;;;5095523;28;20017;-84
2021/08/27 02:30:25;;;;;;;2.75;0.85;;;15.40;94.00;;;;;;5081415;28;20013;-84
2021/08/27 02:32:51;;;;;;;5.07;1.40;;;15.40;94.10;;;;;;5069113;28;20021;-84
2021/08/27 02:35:17;;;;;;;5.65;1.52;;;15.40;94.10;;;;;;5077020;28;20032;-84
2021/08/27 02:37:46;;;;;;;4.50;1.10;;;15.40;94.20;;;;;;5090703;28;20089;-84
2021/08/27 02:40:13;;;;;;;3.72;1.02;;;15.40;94.20;;;;;;5085211;28;20024;-89
2021/08/27 02:42:39;;;;;;;8.52;1.83;;;15.40;94.60;;;;;;5106444;28;20027;-83
2021/08/27 02:45:07;;;;;;;6.35;1.58;;;15.40;94.40;;;;;;5077820;28;20033;-86
2021/08/27 02:47:33;;;;;;;5.65;1.40;;;15.40;94.40;;;;;;5093144;28;20031;-83
2021/08/27 02:49:59;;;;;;;5.50;1.88;;;15.40;94.40;;;;;;5056972;28;20024;-83
2021/08/27 02:52:32;;;;;;;3.55;1.10;;;15.40;94.40;;;;;;5040108;28;20032;-84
2021/08/27 02:55:06;;;;;;;5.22;1.38;;;15.40;94.50;;;;;;5059050;28;20035;-82
2021/08/27 02:57:47;;;;;;;5.38;1.38;;;15.40;94.50;;;;;;5089573;28;20028;-84
2021/08/27 03:00:14;;;;;;;7.85;1.30;;;15.40;94.50;;;;;;5095547;28;20031;-81
2021/08/27 03:02:40;;;;;;;3.83;1.10;;;15.40;94.50;;;;;;5077161;28;20035;-83
2021/08/27 03:05:12;;;;;;;5.10;1.27;;;15.40;94.50;;;;;;5095743;28;20103;-83
2021/08/27 03:07:42;;;;;;;3.70;1.15;;;15.40;94.50;;;;;;5076334;28;20016;-83
2021/08/27 03:10:14;;;;;;;5.30;1.20;;;15.40;94.40;;;;;;5068352;28;20017;-83
2021/08/27 03:12:45;;;;;;;6.20;1.30;;;15.30;94.40;;;;;;5089693;28;20027;-83
2021/08/27 03:15:21;;;;;;;4.13;1.10;;;15.30;94.40;;;;;;5061693;28;20477;-84
2021/08/27 03:17:49;;;;;;;4.50;1.27;;;15.30;94.50;;;;;;5074340;28;20056;-85
2021/08/27 03:20:25;;;;;;;3.45;1.20;;;15.30;94.50;;;;;;5074648;28;20391;-83
2021/08/27 03:23:18;;;;;;;7.07;1.60;;;15.40;94.60;;;;;;5075042;28;20131;-82
2021/08/27 03:25:46;;;;;;;3.03;1.10;;;15.30;94.60;;;;;;5058369;28;20040;-84
2021/08/27 03:28:18;;;;;;;4.05;1.17;;;15.30;94.60;;;;;;5069946;28;20068;-84
2021/08/27 03:30:49;;;;;;;6.68;1.75;;;15.30;94.60;;;;;;5073687;28;20472;-82
2021/08/27 03:33:16;;;;;;;4.32;1.20;;;15.40;94.70;;;;;;5056514;28;20075;-83
2021/08/27 03:35:42;;;;;;;2.75;1.20;;;15.30;94.70;;;;;;5073788;28;20027;-83
2021/08/27 03:38:10;;;;;;;3.13;1.17;;;15.30;94.70;;;;;;5074215;28;20035;-83
2021/08/27 03:40:36;;;;;;;6.07;1.35;;;15.40;94.70;;;;;;5072908;28;20460;-82
2021/08/27 03:43:03;;;;;;;6.50;1.38;;;15.40;94.80;;;;;;5058529;28;20440;-83
2021/08/27 03:45:30;;;;;;;4.68;1.20;;;15.30;94.70;;;;;;5074607;28;20025;-84
2021/08/27 03:47:58;;;;;;;2.75;0.93;;;15.40;94.80;;;;;;5049287;28;20051;-82
2021/08/27 03:50:26;;;;;;;3.58;0.90;;;15.40;94.80;;;;;;5038784;28;20032;-83
2021/08/27 03:52:53;;;;;;;3.53;1.13;;;15.40;94.80;;;;;;5075491;28;20110;-83
2021/08/27 03:55:21;;;;;;;3.42;1.10;;;15.40;94.80;;;;;;5091947;28;20467;-83
2021/08/27 03:57:48;;;;;;;3.00;1.17;;;15.40;94.80;;;;;;5055311;28;20024;-83
2021/08/27 04:00:15;;;;;;;4.55;1.25;;;15.40;94.80;;;;;;5074162;28;20028;-83
2021/08/27 04:02:40;;;;;;;3.17;1.10;;;15.40;94.80;;;;;;5057678;28;20016;-82
2021/08/27 04:05:18;;;;;;;3.97;0.98;;;15.40;94.80;;;;;;5074619;28;20035;-83
2021/08/27 04:07:44;;;;;;;4.30;1.55;;;15.40;94.90;;;;;;5071562;28;20031;-83
2021/08/27 04:10:12;;;;;;;4.90;1.27;;;15.40;94.90;;;;;;5047013;28;20051;-83
2021/08/27 04:12:40;;;;;;;3.88;1.17;;;15.40;94.90;;;;;;5058406;28;20028;-83
2021/08/27 04:15:08;;;;;;;3.75;0.95;;;15.40;94.90;;;;;;5067509;28;20035;-83
2021/08/27 04:17:33;;;;;;;4.60;1.30;;;15.40;95.00;;;;;;5046567;28;20053;-83
2021/08/27 04:19:59;;;;;;;3.38;1.17;;;15.40;95.00;;;;;;5080482;28;20422;-85
2021/08/27 04:22:25;;;;;;;2.60;0.98;;;15.40;94.90;;;;;;5028332;28;20492;-83
2021/08/27 04:24:50;;;;;;;3.85;1.20;;;15.40;95.20;;;;;;5054148;28;20043;-83
2021/08/27 04:27:16;;;;;;;4.22;1.52;;;15.40;95.00;;;;;;5034771;28;20029;-83
2021/08/27 04:29:42;;;;;;;3.90;1.00;;;15.40;95.00;;;;;;5034937;28;20029;-83
2021/08/27 04:32:08;;;;;;;2.65;0.98;;;15.40;95.00;;;;;;5048010;28;20377;-83
2021/08/27 04:34:34;;;;;;;4.28;1.08;;;15.40;95.00;;;;;;5047138;28;20020;-84
2021/08/27 04:36:59;;;;;;;3.78;1.20;;;15.30;95.00;;;;;;5040325;28;20432;-84
2021/08/27 04:39:25;;;;;;;3.65;1.45;;;15.30;95.00;;;;;;5076033;28;20025;-83
2021/08/27 04:41:51;;;;;;;5.43;1.38;;;15.30;95.30;;;;;;5043603;28;20031;-84
2021/08/27 04:44:17;;;;;;;3.97;1.35;;;15.30;95.00;;;;;;5078262;28;20038;-83
2021/08/27 04:46:42;;;;;;;4.60;1.27;;;15.30;95.10;;;;;;5092915;28;20024;-84
2021/08/27 04:49:08;;;;;;;3.92;1.13;;;15.30;95.10;;;;;;5024999;28;20104;-84
2021/08/27 04:51:33;;;;;;;4.85;1.20;;;15.30;95.10;;;;;;5047925;28;20068;-82
2021/08/27 04:53:59;;;;;;;5.38;1.48;;;15.30;95.10;;;;;;5057626;28;20112;-83
2021/08/27 04:56:25;;;;;;;2.65;1.13;;;15.30;95.10;;;;;;5057806;28;20480;-82
2021/08/27 04:58:51;;;;;;;4.22;1.20;;;15.20;95.20;;;;;;5040936;28;20031;-82
2021/08/27 05:01:17;;;;;;;5.40;1.30;;;15.30;95.20;;;;;;5049250;28;20078;-83
2021/08/27 05:03:43;;;;;;;5.20;1.10;;;15.30;95.20;;;;;;5071868;28;20472;-84
2021/08/27 05:06:09;;;;;;;3.38;1.20;;;15.20;95.20;;;;;;5057351;28;20025;-83
2021/08/27 05:08:35;;;;;;;4.35;1.42;;;15.20;95.30;;;;;;5028720;28;20029;-83
2021/08/27 05:11:01;;;;;;;4.85;1.20;;;15.30;95.30;;;;;;5058994;28;20021;-83
2021/08/27 05:13:27;;;;;;;3.47;1.15;;;15.30;95.30;;;;;;5044575;28;20047;-83
2021/08/27 05:15:53;;;;;;;2.17;0.95;;;15.30;95.30;;;;;;5056329;28;20491;-83
2021/08/27 05:18:18;;;;;;;6.53;1.30;;;15.30;95.40;;;;;;5090288;28;20050;-83
2021/08/27 05:20:44;;;;;;;3.38;1.55;;;15.30;95.40;;;;;;5060896;28;20032;-84
2021/08/27 05:23:09;;;;;;;3.72;1.30;;;15.30;95.40;;;;;;5073792;28;20511;-84
2021/08/27 05:25:35;;;;;;;3.45;1.63;;;15.30;95.40;;;;;;5065940;28;20028;-84
2021/08/27 05:28:01;;;;;;;2.83;1.20;;;15.30;95.40;;;;;;5077197;28;20020;-84
2021/08/27 05:30:26;;;;;;;3.20;1.20;;;15.30;95.40;;;;;;5075950;28;20020;-84
2021/08/27 05:32:54;;;;;;;4.88;1.42;;;15.30;95.40;;;;;;5056345;28;20025;-83
2021/08/27 05:35:20;;;;;;;4.43;1.55;;;15.30;95.50;;;;;;5073710;28;20318;-84
2021/08/27 05:37:45;;;;;;;4.13;1.17;;;15.30;95.50;;;;;;5052956;28;20043;-83
2021/08/27 05:40:11;;;;;;;4.18;1.20;;;15.30;95.50;;;;;;5074657;28;20027;-83
2021/08/27 05:42:38;;;;;;;2.88;1.17;;;15.30;95.50;;;;;;5040378;28;20055;-83
2021/08/27 05:45:05;;;;;;;4.38;1.40;;;15.40;95.50;;;;;;5068644;28;20694;-83
2021/08/27 05:47:31;;;;;;;4.57;1.33;;;15.30;95.40;;;;;;5057709;28;20012;-82
2021/08/27 05:49:58;;;;;;;3.80;1.10;;;15.40;95.50;;;;;;5051045;28;20039;-84
2021/08/27 05:52:24;;;;;;;2.88;1.02;;;15.40;95.50;;;;;;5059760;28;20024;-84
2021/08/27 05:54:49;;;;;;;2.50;0.98;;;15.40;95.40;;;;;;5074942;28;20425;-83
2021/08/27 05:57:15;;;;;;;3.08;1.30;;;15.40;95.50;;;;;;5051236;28;20043;-84
2021/08/27 05:59:41;;;;;;;4.35;1.23;;;15.40;96.50;;;;;;5055310;28;20036;-85
2021/08/27 06:02:06;;;;;;;3.13;1.17;;;15.40;96.40;;;;;;5055924;28;20029;-86
2021/08/27 06:04:32;;;;;;;3.50;1.10;;;15.40;96.80;;;;;;5039351;28;20112;-85
2021/08/27 06:06:58;;;;;;;2.90;1.10;;;15.50;96.70;;;;;;5068866;28;20035;-83
2021/08/27 06:09:24;;;;;;;3.80;1.23;;;15.50;96.60;;;;;;5078281;28;20081;-84
2021/08/27 06:11:50;;;;;;;3.85;1.17;;;15.50;96.50;;;;;;5062183;28;20040;-84
2021/08/27 06:14:16;;;;;;;5.28;1.63;;;15.50;96.40;;;;;;5068112;28;20008;-91
2021/08/27 06:16:42;;;;;;;3.15;1.00;;;15.50;96.30;;;;;;5098887;28;20028;-86
2021/08/27 06:19:07;;;;;;;3.35;1.17;;;15.60;96.30;;;;;;5085034;28;20032;-83
2021/08/27 06:21:37;;;;;;;2.42;1.27;;;15.60;96.30;;;;;;5080567;28;20041;-84
2021/08/27 06:24:03;;;;;;;4.22;1.17;;;15.60;96.20;;;;;;5077491;28;20028;-93
2021/08/27 06:26:29;;;;;;;2.83;1.10;;;15.60;96.20;;;;;;5078833;28;20029;-84
2021/08/27 06:28:56;;;;;;;4.40;1.40;;;15.60;96.20;;;;;;5059794;28;20118;-85
2021/08/27 06:31:21;;;;;;;4.25;1.20;;;15.70;96.20;;;;;;5072492;28;20071;-85
2021/08/27 06:33:47;;;;;;;5.30;1.30;;;15.60;96.10;;;;;;5051490;28;20033;-85
2021/08/27 06:36:13;;;;;;;1.63;0.77;;;15.70;96.10;;;;;;5056950;28;20028;-84
2021/08/27 06:38:39;;;;;;;3.38;0.98;;;15.70;96.10;;;;;;5039707;28;20396;-85
2021/08/27 06:41:06;;;;;;;3.92;1.08;;;15.70;96.10;;;;;;5072698;28;20384;-85
2021/08/27 06:43:37;;;;;;;3.67;1.23;;;15.70;96.00;;;;;;5072105;28;20040;-84
2021/08/27 06:46:08;;;;;;;4.13;1.13;;;15.80;96.00;;;;;;5054882;28;20083;-85
2021/08/27 06:48:35;;;;;;;4.43;1.88;;;15.80;96.00;;;;;;5072107;28;20032;-85
2021/08/27 06:51:02;;;;;;;6.32;1.90;;;15.80;96.00;;;;;;5035471;28;20021;-83
2021/08/27 06:53:27;;;;;;;2.28;1.00;;;15.80;96.20;;;;;;5054697;28;20025;-83
2021/08/27 06:55:53;;;;;;;2.35;1.00;;;15.80;96.00;;;;;;5056634;28;20138;-83
2021/08/27 06:58:19;;;;;;;3.67;1.23;;;15.90;96.00;;;;;;5054911;28;20029;-84
2021/08/27 07:00:45;;;;;;;3.78;1.27;;;15.90;96.00;;;;;;5054725;28;20028;-83
2021/08/27 07:03:11;;;;;;;3.58;1.10;;;15.90;96.00;;;;;;5073201;28;20027;-84
2021/08/27 07:05:37;;;;;;;2.80;1.20;;;15.90;96.00;;;;;;5055361;28;20027;-84
2021/08/27 07:08:03;;;;;;;4.70;1.98;;;16.00;96.00;;;;;;5084797;28;20020;-85
2021/08/27 07:10:28;;;;;;;2.08;0.88;;;16.00;96.00;;;;;;5053074;28;20044;-87
2021/08/27 07:12:54;;;;;;;2.55;0.90;;;16.00;95.90;;;;;;5058869;28;20057;-85
2021/08/27 07:15:20;;;;;;;2.47;1.10;;;16.10;96.00;;;;;;5070350;28;20399;-86
2021/08/27 07:17:46;;;;;;;3.45;1.20;;;16.10;95.90;;;;;;5057647;28;20024;-87
2021/08/27 07:20:13;;;;;;;4.13;1.20;;;16.10;96.00;;;;;;5072902;28;20028;-87
2021/08/27 07:22:39;;;;;;;2.25;0.90;;;16.10;96.00;;;;;;5035688;28;20048;-85
2021/08/27 07:25:06;;;;;;;2.67;1.10;;;16.20;96.00;;;;;;5060613;28;20094;-86
2021/08/27 07:27:32;;;;;;;3.45;1.13;;;16.20;95.90;;;;;;5055534;28;20025;-86
2021/08/27 07:29:58;;;;;;;4.15;1.10;;;16.30;95.90;;;;;;5049800;28;20380;-85
2021/08/27 07:32:23;;;;;;;2.55;1.00;;;16.30;95.90;;;;;;5067129;28;20021;-86
2021/08/27 07:34:50;;;;;;;3.92;1.50;;;16.30;95.90;;;;;;5058288;28;20082;-86
2021/08/27 07:37:16;;;;;;;4.10;1.23;;;16.40;95.90;;;;;;5036303;28;20059;-85
2021/08/27 07:39:41;;;;;;;2.47;1.00;;;16.40;96.00;;;;;;5029265;28;20025;-90
2021/08/27 07:42:08;;;;;;;2.40;1.17;;;16.50;96.00;;;;;;5053393;28;20029;-86
2021/08/27 07:44:35;;;;;;;2.65;1.08;;;16.50;95.90;;;;;;5062466;28;20404;-87
2021/08/27 07:47:01;;;;;;;3.72;1.27;;;16.60;95.90;;;;;;5055689;28;20017;-86
2021/08/27 07:49:27;;;;;;;4.93;1.35;;;16.60;95.90;;;;;;5046402;28;20028;-87
2021/08/27 07:51:53;;;;;;;3.78;0.90;;;16.60;95.90;;;;;;5030350;28;20035;-88
2021/08/27 07:54:20;;;;;;;4.68;1.23;;;16.70;95.90;;;;;;5059581;28;20031;-83
2021/08/27 07:56:45;;;;;;;6.70;1.80;;;16.70;95.90;;;;;;5071794;28;20042;-85
2021/08/27 07:59:11;;;;;;;3.50;1.45;;;16.70;95.80;;;;;;5048218;28;20025;-82
2021/08/27 08:01:37;;;;;;;3.25;1.52;;;16.80;95.80;;;;;;5030738;28;20032;-82
2021/08/27 08:04:03;;;;;;;3.45;1.20;;;16.80;95.80;;;;;;5054815;28;20031;-83
2021/08/27 08:06:31;;;;;;;2.45;0.95;;;16.80;95.70;;;;;;5090711;28;20543;-83
2021/08/27 08:08:57;;;;;;;3.60;1.20;;;16.90;95.70;;;;;;5056909;28;20055;-83
2021/08/27 08:11:23;;;;;;;4.28;1.00;;;16.90;95.70;;;;;;5040030;28;20435;-83
2021/08/27 08:13:49;;;;;;;4.47;1.30;;;16.90;95.70;;;;;;5088386;28;20035;-82
2021/08/27 08:16:14;;;;;;;3.33;1.08;;;16.90;95.70;;;;;;5058138;28;20023;-83
2021/08/27 08:18:40;;;;;;;3.53;1.75;;;17.00;95.70;;;;;;5080607;28;20023;-84
2021/08/27 08:21:06;;;;;;;3.67;0.95;;;17.00;95.70;;;;;;5075859;28;20035;-85
2021/08/27 08:23:33;;;;;;;3.35;1.35;;;17.00;95.80;;;;;;5074777;28;20048;-85
2021/08/27 08:26:00;;;;;;;4.80;1.33;;;17.10;95.80;;;;;;5049292;28;20082;-82
2021/08/27 08:28:26;;;;;;;3.17;1.08;;;17.10;95.80;;;;;;5075122;28;20017;-83
2021/08/27 08:30:52;;;;;;;5.32;1.65;;;17.10;95.80;;;;;;5057052;28;20074;-84
2021/08/27 08:33:19;;;;;;;3.85;1.20;;;17.20;95.70;;;;;;5056540;28;20036;-85
2021/08/27 08:35:45;;;;;;;3.78;1.10;;;17.20;95.70;;;;;;5040333;28;20063;-84
2021/08/27 08:38:10;;;;;;;4.35;1.10;;;17.20;95.70;;;;;;5023194;28;20061;-83
2021/08/27 08:40:41;;;;;;;3.08;1.08;;;17.30;95.80;;;;;;5057045;28;20563;-82
2021/08/27 08:43:11;;;;;;;4.00;1.30;;;17.40;95.80;;;;;;5053553;28;20025;-83
2021/08/27 08:45:47;;;;;;;3.17;1.20;;;17.40;95.70;;;;;;5073810;28;20095;-83
2021/08/27 08:48:17;;;;;;;3.05;0.95;;;17.50;95.70;;;;;;5074858;28;20254;-83
2021/08/27 08:50:44;;;;;;;2.70;1.17;;;17.50;95.70;;;;;;5074431;28;20020;-81
2021/08/27 08:53:12;;;;;;;3.30;1.50;;;17.60;95.60;;;;;;5056738;28;20142;-83
2021/08/27 08:55:39;;;;;;;4.03;1.52;;;17.70;95.60;;;;;;5054937;28;20103;-84
2021/08/27 08:58:05;;;;;;;3.55;1.30;;;17.80;95.60;;;;;;5044620;28;20121;-82
2021/08/27 09:00:31;;;;;;;3.13;1.33;;;17.80;95.60;;;;;;5056270;28;20111;-84
2021/08/27 09:02:58;;;;;;;2.80;1.00;;;17.90;95.50;;;;;;5056773;28;20025;-82
2021/08/27 09:05:24;;;;;;;3.25;1.30;;;18.00;95.40;;;;;;5072754;28;20032;-85
2021/08/27 09:07:50;;;;;;;2.67;0.85;;;18.00;95.30;;;;;;5072929;28;20516;-82
2021/08/27 09:10:20;;;;;;;3.72;1.48;;;18.10;95.30;;;;;;5056233;28;20110;-88
2021/08/27 09:12:47;;;;;;;5.22;1.52;;;18.10;95.20;;;;;;5089509;28;20468;-85
2021/08/27 09:15:15;;;;;;;3.85;1.15;;;18.10;95.10;;;;;;5071297;28;20090;-82
2021/08/27 09:17:46;;;;;;;4.95;1.83;;;18.20;95.10;;;;;;5058640;28;20016;-82
2021/08/27 09:20:15;;;;;;;5.78;1.55;;;18.20;95.00;;;;;;5041571;28;20017;-83
2021/08/27 09:22:55;;;;;;;5.63;1.83;;;18.30;94.90;;;;;;5055052;28;20510;-83
2021/08/27 09:25:22;;;;;;;3.50;1.58;;;18.30;94.80;;;;;;5073229;28;20031;-83
2021/08/27 09:28:11;;;;;;;4.55;1.63;;;18.40;94.90;;;;;;5064416;28;20591;-82
2021/08/27 09:30:56;;;;;;;4.55;1.40;;;18.40;94.80;;;;;;5073345;28;20023;-83
2021/08/27 09:33:24;;;;;;;6.20;1.60;;;18.50;94.80;;;;;;5054053;28;20052;-85
2021/08/27 09:36:19;;;;;;;3.65;1.17;;;18.50;94.70;;;;;;5062695;28;20082;-83
2021/08/27 09:38:58;;;;;;;4.40;1.35;;;18.60;94.70;;;;;;5042234;28;20068;-83
2021/08/27 09:41:24;;;;;;;3.30;1.20;;;18.70;94.70;;;;;;5073912;28;20074;-82
2021/08/27 09:43:53;;;;;;;5.88;1.40;;;18.70;94.60;;;;;;5055888;28;20455;-84
2021/08/27 09:46:34;;;;;;;5.32;1.27;;;18.70;94.40;;;;;;5073256;28;20112;-82
2021/08/27 09:49:02;;;;;;;6.22;1.45;;;18.80;94.40;;;;;;5055449;28;20013;-82
2021/08/27 09:51:44;;;;;;;5.40;1.30;;;18.80;94.30;;;;;;5052838;28;20024;-81
2021/08/27 09:54:20;;;;;;;4.72;1.33;;;18.90;94.30;;;;;;5074739;28;20490;-81
2021/08/27 09:56:49;;;;;;;5.85;1.73;;;18.90;94.30;;;;;;5070924;28;20033;-83
2021/08/27 09:59:15;;;;;;;3.40;1.25;;;18.90;94.20;;;;;;5082670;28;20396;-82
2021/08/27 10:01:50;;;;;;;2.70;0.93;;;19.00;94.10;;;;;;5083141;28;20411;-81
2021/08/27 10:04:17;;;;;;;4.65;1.15;;;19.10;94.00;;;;;;5043523;28;20028;-83
2021/08/27 10:06:43;;;;;;;4.70;1.30;;;19.10;93.90;;;;;;5078088;28;20021;-81
2021/08/27 10:09:09;;;;;;;5.75;1.35;;;19.20;93.90;;;;;;5085661;28;20052;-84
2021/08/27 10:11:35;;;;;;;3.88;1.48;;;19.30;93.80;;;;;;5082930;28;20384;-82
2021/08/27 10:14:02;;;;;;;3.97;1.25;;;19.30;93.70;;;;;;5056880;28;20082;-82
2021/08/27 10:16:31;;;;;;;4.78;1.20;;;19.30;93.50;;;;;;5059756;28;20515;-82
2021/08/27 10:18:58;;;;;;;4.50;1.70;;;19.40;93.50;;;;;;5064718;28;20042;-83
2021/08/27 10:21:24;;;;;;;3.97;1.15;;;19.40;93.40;;;;;;5059107;28;20090;-82
2021/08/27 10:23:50;;;;;;;5.75;1.75;;;19.40;93.40;;;;;;5093104;28;20044;-82
2021/08/27 10:26:21;;;;;;;7.15;1.90;;;19.40;93.30;;;;;;5095167;28;20442;-87
2021/08/27 10:28:49;;;;;;;3.67;1.40;;;19.40;94.30;;;;;;5081255;28;20062;-87
2021/08/27 10:31:15;;;;;;;4.80;1.45;;;19.40;94.70;;;;;;5077852;28;20024;-87
2021/08/27 10:33:41;;;;;;;6.43;1.52;;;19.40;94.80;;;;;;5077082;28;20064;-88
2021/08/27 10:36:27;;;;;;;5.32;1.60;;;19.30;95.20;;;;;;5061580;28;20456;-90
2021/08/27 10:38:55;;;;;;;4.88;1.70;;;19.20;95.20;;;;;;5043538;28;20043;-86
2021/08/27 10:41:32;;;;;;;4.53;1.35;;;19.10;95.40;;;;;;5053655;28;20036;-86
2021/08/27 10:44:05;;;;;;;4.22;1.58;;;19.10;95.70;;;;;;5071826;28;20020;-86
2021/08/27 10:46:46;;;;;;;3.63;1.48;;;19.10;96.00;;;;;;5060064;28;20495;-87
2021/08/27 10:49:20;;;;;;;4.65;1.50;;;19.10;96.50;;;;;;5049975;28;20477;-87
2021/08/27 10:51:47;;;;;;;4.93;1.30;;;19.10;96.40;;;;;;5050818;28;20082;-87
2021/08/27 10:54:15;;;;;;;3.97;1.40;;;19.10;96.60;;;;;;5074677;28;20059;-86
2021/08/27 10:56:51;;;;;;;6.68;1.40;;;19.10;96.70;;;;;;5073766;28;20067;-87
2021/08/27 10:59:20;;;;;;;5.65;1.70;;;19.20;96.90;;;;;;5058484;28;20370;-85
2021/08/27 11:01:47;;;;;;;3.90;1.40;;;19.20;97.10;;;;;;5082203;28;20021;-84
2021/08/27 11:04:24;;;;;;;4.35;1.40;;;19.30;97.30;;;;;;5053778;28;20035;-83
2021/08/27 11:07:13;;;;;;;4.10;1.38;;;19.30;97.30;;;;;;5064223;28;20123;-85
2021/08/27 11:09:38;;;;;;;3.10;1.10;;;19.30;97.30;;;;;;5054204;28;20466;-85
2021/08/27 11:12:12;;;;;;;2.85;1.00;;;19.30;97.30;;;;;;5077725;28;20028;-83
2021/08/27 11:14:42;;;;;;;4.15;1.20;;;19.40;97.40;;;;;;5076676;28;20031;-83
2021/08/27 11:17:10;;;;;;;3.88;1.20;;;19.40;97.40;;;;;;5090968;28;20357;-83
2021/08/27 11:19:58;;;;;;;3.65;1.40;;;19.50;97.50;;;;;;5058526;28;20048;-83
2021/08/27 11:22:30;;;;;;;3.70;0.90;;;19.50;97.50;;;;;;5050704;28;20037;-83
2021/08/27 11:25:07;;;;;;;4.82;1.20;;;19.60;97.50;;;;;;5019865;28;20079;-83
2021/08/27 11:27:34;;;;;;;4.65;1.48;;;19.70;97.50;;;;;;5039957;28;20116;-82
2021/08/27 11:30:28;;;;;;;4.22;1.48;;;19.70;97.30;;;;;;5048963;28;20017;-82
2021/08/27 11:32:55;;;;;;;5.07;1.10;;;19.70;97.20;;;;;;5028342;28;20112;-80
2021/08/27 11:35:24;;;;;;;5.10;1.20;;;19.70;97.20;;;;;;5013613;28;20092;-84
2021/08/27 11:37:56;;;;;;;3.65;1.30;;;19.70;97.10;;;;;;5014618;28;20064;-84
2021/08/27 11:40:22;;;;;;;2.80;1.05;;;19.70;97.00;;;;;;5030310;28;20025;-83
2021/08/27 11:42:52;;;;;;;4.90;1.60;;;19.70;97.00;;;;;;5040525;28;20499;-84
2021/08/27 11:45:21;;;;;;;3.70;1.48;;;19.80;97.20;;;;;;5003475;28;20029;-84
2021/08/27 11:47:52;;;;;;;3.80;1.33;;;19.80;97.40;;;;;;5001817;28;20035;-83
2021/08/27 11:50:22;;;;;;;;;;;19.90;97.20;;;;;;5050214;28;20500;-86
2021/08/27 11:52:49;;;;;;;3.93;1.40;;;19.90;97.30;;;;;;5028580;28;19912;-83
2021/08/27 11:55:16;;;;;;;4.80;1.50;;;19.90;97.10;;;;;;5003473;28;20288;-83
2021/08/27 11:57:50;;;;;;;6.35;1.55;;;19.90;97.00;;;;;;5027090;28;20040;-84
2021/08/27 12:00:17;;;;;;;4.90;1.67;;;20.00;96.90;;;;;;5045355;28;20445;-88
2021/08/27 12:02:42;;;;;;;5.40;1.67;;;20.00;96.80;;;;;;5031888;28;20079;-86
2021/08/27 12:05:11;;;;;;;5.15;1.85;;;20.00;96.50;;;;;;5019176;28;20405;-87
2021/08/27 12:07:55;;;;;;;7.18;1.58;;;20.10;96.50;;;;;;5034137;28;20056;-86
2021/08/27 12:10:22;;;;;;;5.43;1.80;;;20.10;96.30;;;;;;5045233;28;20079;-86
2021/08/27 12:12:50;;;;;;;4.32;1.35;;;20.10;96.10;;;;;;5031940;28;20030;-87
2021/08/27 12:15:18;;;;;;;4.93;1.50;;;20.10;96.10;;;;;;5026189;28;20029;-86
2021/08/27 12:17:54;;;;;;;5.75;1.95;;;20.20;96.20;;;;;;5051849;28;20017;-89
2021/08/27 12:20:23;;;;;;;7.90;2.40;;;20.20;96.00;;;;;;5038640;28;20060;-86
2021/08/27 12:22:54;;;;;;;6.60;2.00;;;20.30;95.90;;;;;;5054850;28;20041;-88
2021/08/27 12:25:27;;;;;;;6.38;1.90;;;20.30;95.90;;;;;;5067538;28;20025;-87
2021/08/27 12:27:55;;;;;;;6.05;1.95;;;20.40;95.80;;;;;;5071481;28;20016;-86
2021/08/27 12:30:24;;;;;;;6.03;1.75;;;20.50;95.70;;;;;;5054374;28;20025;-87
2021/08/27 12:32:51;;;;;;;5.25;1.77;;;20.50;95.60;;;;;;5063792;28;20476;-87
2021/08/27 12:35:27;;;;;;;5.85;1.70;;;20.60;95.60;;;;;;5052624;28;20525;-82
2021/08/27 12:37:52;;;;;;;3.75;1.40;;;20.70;95.60;;;;;;5075090;28;20033;-82
2021/08/27 12:40:20;;;;;;;6.57;1.40;;;20.70;95.40;;;;;;5069693;28;20160;-82
2021/08/27 12:43:08;;;;;;;6.88;1.80;;;20.80;95.20;;;;;;5060424;28;20025;-82
2021/08/27 12:45:52;;;;;;;5.95;1.50;;;20.90;94.70;;;;;;5053058;28;20025;-83
2021/08/27 12:48:21;;;;;;;8.25;2.10;;;20.90;94.50;;;;;;5067665;28;20039;-82
2021/08/27 12:50:55;;;;;;;8.13;1.83;;;20.90;94.40;;;;;;5040493;28;20460;-82
2021/08/27 12:53:38;;;;;;;6.28;1.77;;;20.90;94.30;;;;;;5063536;28;20033;-84
2021/08/27 12:56:22;;;;;;;5.18;1.85;;;21.00;94.20;;;;;;5040619;28;20043;-82